createdAt,value
2022-10-18T00:01:58.926Z,2.40
2022-10-18T00:04:00.647Z,2.65
2022-10-18T00:06:03.435Z,2.33
2022-10-18T00:08:05.259Z,3.03
2022-10-18T00:10:07.678Z,1.73
2022-10-18T00:12:09.412Z,3.28
2022-10-18T00:14:11.208Z,2.63
2022-10-18T00:16:17.121Z,2.30
2022-10-18T00:18:19.684Z,2.63
2022-10-18T00:20:21.383Z,2.22
2022-10-18T00:22:23.274Z,3.25
2022-10-18T00:24:24.887Z,2.83
2022-10-18T00:26:29.002Z,2.22
2022-10-18T00:28:31.226Z,2.38
2022-10-18T00:30:32.975Z,2.53
2022-10-18T00:32:42.226Z,1.80
2022-10-18T00:34:43.883Z,2.58
2022-10-18T00:36:45.717Z,2.10
2022-10-18T00:38:48.407Z,2.05
2022-10-18T00:40:50.025Z,2.05
2022-10-18T00:42:51.717Z,2.35
2022-10-18T00:45:04.998Z,2.55
2022-10-18T00:47:11.017Z,2.50
2022-10-18T00:49:19.639Z,2.17
2022-10-18T00:51:23.107Z,3.60
2022-10-18T00:53:30.387Z,2.22
2022-10-18T00:55:34.163Z,2.00
2022-10-18T00:57:36.825Z,2.30
2022-10-18T00:59:38.759Z,2.13
2022-10-18T01:01:40.381Z,2.65
2022-10-18T01:03:42.650Z,2.17
2022-10-18T01:05:47.061Z,2.10
2022-10-18T01:08:16.001Z,3.10
2022-10-18T01:10:42.304Z,2.05
2022-10-18T01:13:14.441Z,2.33
2022-10-18T01:15:29.283Z,1.98
2022-10-18T01:17:59.127Z,2.28
2022-10-18T01:20:00.701Z,2.85
2022-10-18T01:22:09.297Z,1.83
2022-10-18T01:24:36.498Z,2.83
2022-10-18T01:26:57.941Z,2.70
2022-10-18T01:29:09.036Z,2.60
2022-10-18T01:31:16.680Z,1.92
2022-10-18T01:33:32.372Z,2.63
2022-10-18T01:35:42.937Z,2.40
2022-10-18T01:37:47.464Z,3.15
2022-10-18T01:39:53.937Z,3.00
2022-10-18T01:41:58.551Z,2.47
2022-10-18T01:44:03.146Z,2.33
2022-10-18T01:46:05.924Z,2.30
2022-10-18T01:48:09.107Z,2.40
2022-10-18T01:50:10.746Z,2.50
2022-10-18T01:52:16.515Z,2.38
2022-10-18T01:54:30.012Z,2.10
2022-10-18T01:57:00.394Z,2.72
2022-10-18T01:59:23.704Z,2.67
2022-10-18T02:01:34.034Z,2.72
2022-10-18T02:03:39.992Z,3.25
2022-10-18T02:05:54.592Z,3.92
2022-10-18T02:08:22.774Z,3.53
2022-10-18T02:10:41.454Z,2.72
2022-10-18T02:13:02.933Z,2.38
2022-10-18T02:15:31.087Z,2.05
2022-10-18T02:17:50.881Z,2.40
2022-10-18T02:19:55.685Z,1.88
2022-10-18T02:21:59.259Z,2.75
2022-10-18T02:24:02.676Z,2.28
2022-10-18T02:26:04.606Z,2.42
2022-10-18T02:28:06.819Z,2.50
2022-10-18T02:30:09.956Z,2.70
2022-10-18T02:32:34.640Z,2.10
2022-10-18T02:34:42.707Z,2.88
2022-10-18T02:36:50.132Z,2.33
2022-10-18T02:38:56.255Z,2.53
2022-10-18T02:40:58.987Z,2.65
2022-10-18T02:43:00.716Z,2.50
2022-10-18T02:45:02.725Z,2.40
2022-10-18T02:47:05.959Z,2.50
2022-10-18T02:49:07.967Z,2.78
2022-10-18T02:51:10.178Z,2.45
2022-10-18T02:53:11.864Z,2.22
2022-10-18T02:55:14.085Z,3.00
2022-10-18T02:57:15.742Z,2.20
2022-10-18T02:59:18.048Z,2.92
2022-10-18T03:01:19.793Z,2.30
2022-10-18T03:03:26.051Z,2.40
2022-10-18T03:05:27.842Z,2.20
2022-10-18T03:07:29.625Z,2.60
2022-10-18T03:09:31.718Z,2.35
2022-10-18T03:11:33.539Z,2.25
2022-10-18T03:13:35.187Z,3.35
2022-10-18T03:15:37.169Z,2.90
2022-10-18T03:17:38.807Z,2.20
2022-10-18T03:19:40.534Z,2.72
2022-10-18T03:21:42.244Z,2.25
2022-10-18T03:23:43.965Z,2.78
2022-10-18T03:25:46.452Z,2.33
2022-10-18T03:27:48.207Z,2.80
2022-10-18T03:29:49.944Z,3.03
2022-10-18T03:31:51.566Z,2.55
2022-10-18T03:33:53.241Z,2.47
2022-10-18T03:35:54.937Z,2.63
2022-10-18T03:37:56.593Z,2.80
2022-10-18T03:39:58.393Z,2.70
2022-10-18T03:42:00.094Z,2.67
2022-10-18T03:44:01.733Z,2.97
2022-10-18T03:46:03.495Z,3.28
2022-10-18T03:48:05.343Z,3.10
2022-10-18T03:50:08.196Z,3.60
2022-10-18T03:52:10.122Z,2.97
2022-10-18T03:54:11.744Z,3.53
2022-10-18T03:56:13.399Z,3.53
2022-10-18T03:58:17.185Z,2.97
2022-10-18T04:00:18.880Z,3.78
2022-10-18T04:02:20.564Z,3.40
2022-10-18T04:04:22.293Z,3.17
2022-10-18T04:06:23.988Z,3.67
2022-10-18T04:08:25.664Z,3.63
2022-10-18T04:10:27.461Z,4.45
2022-10-18T04:12:29.327Z,3.63
2022-10-18T04:14:31.188Z,3.83
2022-10-18T04:16:33.451Z,3.97
2022-10-18T04:18:35.127Z,4.07
2022-10-18T04:20:36.815Z,3.40
2022-10-18T04:22:38.546Z,3.88
2022-10-18T04:24:40.172Z,3.65
2022-10-18T04:26:41.784Z,3.70
2022-10-18T04:28:44.259Z,3.70
2022-10-18T04:30:53.186Z,4.40
2022-10-18T04:32:54.869Z,4.40
2022-10-18T04:34:56.566Z,3.83
2022-10-18T04:36:58.204Z,4.03
2022-10-18T04:38:59.882Z,3.92
2022-10-18T04:41:01.699Z,3.95
2022-10-18T04:43:03.430Z,4.15
2022-10-18T04:45:05.462Z,4.63
2022-10-18T04:47:07.078Z,4.93
2022-10-18T04:49:08.702Z,3.90
2022-10-18T04:51:10.371Z,3.33
2022-10-18T04:53:12.048Z,3.85
2022-10-18T04:55:13.728Z,3.30
2022-10-18T04:57:15.593Z,4.30
2022-10-18T04:59:17.454Z,3.42
2022-10-18T05:01:19.349Z,3.35
2022-10-18T05:03:27.641Z,3.42
2022-10-18T05:05:50.039Z,3.60
2022-10-18T05:07:50.973Z,2.67
2022-10-18T05:09:52.695Z,3.63
2022-10-18T05:11:54.341Z,2.85
2022-10-18T05:13:56.091Z,2.78
2022-10-18T05:15:59.592Z,3.20
2022-10-18T05:18:01.296Z,3.20
2022-10-18T05:20:04.320Z,3.35
2022-10-18T05:22:06.258Z,3.50
2022-10-18T05:24:07.872Z,4.50
2022-10-18T05:26:09.715Z,3.70
2022-10-18T05:28:37.989Z,4.18
2022-10-18T05:30:34.166Z,4.70
2022-10-18T05:32:35.812Z,3.55
2022-10-18T05:34:37.520Z,4.22
2022-10-18T05:36:39.234Z,4.28
2022-10-18T05:38:42.978Z,4.05
2022-10-18T05:40:44.987Z,3.72
2022-10-18T05:42:46.685Z,4.30
2022-10-18T05:44:48.511Z,3.85
2022-10-18T05:46:50.176Z,3.83
2022-10-18T05:48:52.426Z,4.22
2022-10-18T05:50:54.127Z,3.50
2022-10-18T05:53:02.732Z,4.22
2022-10-18T05:55:14.474Z,3.53
2022-10-18T05:57:16.083Z,3.63
2022-10-18T05:59:17.734Z,3.67
2022-10-18T06:01:19.447Z,3.85
2022-10-18T06:03:32.288Z,4.13
2022-10-18T06:05:34.038Z,3.67
2022-10-18T06:07:35.747Z,4.25
2022-10-18T06:09:38.485Z,3.42
2022-10-18T06:11:40.223Z,3.92
2022-10-18T06:13:47.091Z,4.15
2022-10-18T06:15:48.892Z,4.40
2022-10-18T06:17:50.532Z,3.45
2022-10-18T06:19:52.258Z,4.03
2022-10-18T06:21:54.003Z,3.78
2022-10-18T06:23:57.964Z,4.00
2022-10-18T06:26:01.985Z,3.47
2022-10-18T06:28:09.038Z,4.32
2022-10-18T06:30:13.264Z,5.00
2022-10-18T06:32:14.970Z,3.63
2022-10-18T06:34:16.665Z,4.35
2022-10-18T06:36:24.154Z,3.92
2022-10-18T06:38:26.587Z,4.30
2022-10-18T06:40:30.920Z,4.95
2022-10-18T06:42:32.981Z,4.07
2022-10-18T06:44:34.805Z,4.25
2022-10-18T06:46:36.509Z,4.50
2022-10-18T06:48:39.057Z,4.45
2022-10-18T06:50:40.940Z,3.95
2022-10-18T06:52:42.601Z,4.97
2022-10-18T06:54:45.390Z,4.03
2022-10-18T06:56:47.248Z,4.22
2022-10-18T06:58:49.031Z,3.95
2022-10-18T07:00:50.728Z,4.03
2022-10-18T07:02:52.381Z,3.80
2022-10-18T07:04:54.100Z,4.03
2022-10-18T07:06:55.816Z,4.40
2022-10-18T07:08:57.642Z,4.35
2022-10-18T07:10:59.773Z,4.18
2022-10-18T07:13:20.032Z,4.15
2022-10-18T07:15:24.409Z,4.30
2022-10-18T07:17:27.467Z,4.32
2022-10-18T07:19:29.088Z,4.82
2022-10-18T07:21:31.506Z,4.97
2022-10-18T07:23:39.445Z,5.72
2022-10-18T07:25:41.134Z,4.93
2022-10-18T07:27:43.654Z,4.22
2022-10-18T07:29:45.272Z,4.13
2022-10-18T07:31:46.883Z,4.63
2022-10-18T07:33:48.542Z,4.15
2022-10-18T07:35:50.274Z,4.15
2022-10-18T07:37:52.017Z,4.60
2022-10-18T07:39:53.690Z,3.53
2022-10-18T07:41:55.369Z,4.35
2022-10-18T07:43:57.061Z,4.13
2022-10-18T07:46:01.822Z,4.53
2022-10-18T07:48:03.629Z,4.80
2022-10-18T07:50:05.933Z,4.72
2022-10-18T07:52:07.647Z,5.00
2022-10-18T07:54:09.772Z,4.97
2022-10-18T07:56:17.133Z,4.65
2022-10-18T07:58:18.872Z,4.57
2022-10-18T08:00:20.738Z,5.15
2022-10-18T08:02:23.952Z,5.18
2022-10-18T08:04:31.224Z,4.30
2022-10-18T08:06:33.198Z,4.20
2022-10-18T08:08:38.987Z,4.32
2022-10-18T08:10:40.735Z,5.22
2022-10-18T08:12:42.719Z,4.40
2022-10-18T08:14:44.582Z,4.95
2022-10-18T08:16:46.231Z,5.05
2022-10-18T08:18:48.147Z,5.53
2022-10-18T08:20:49.858Z,5.50
2022-10-18T08:22:53.086Z,5.63
2022-10-18T08:24:57.106Z,4.65
2022-10-18T08:26:58.809Z,5.55
2022-10-18T08:29:10.663Z,5.22
2022-10-18T08:31:20.224Z,5.40
2022-10-18T08:33:26.819Z,5.72
2022-10-18T08:35:28.491Z,5.28
2022-10-18T08:37:30.651Z,5.25
2022-10-18T08:39:33.049Z,4.85
2022-10-18T08:41:44.292Z,5.53
2022-10-18T08:43:51.921Z,4.97
2022-10-18T08:45:55.253Z,5.88
2022-10-18T08:47:57.954Z,7.18
2022-10-18T08:50:06.266Z,5.72
2022-10-18T08:52:19.297Z,5.50
2022-10-18T08:55:01.151Z,5.50
2022-10-18T08:57:10.317Z,5.35
2022-10-18T08:59:13.419Z,4.55
2022-10-18T09:01:34.536Z,5.13
2022-10-18T09:04:23.459Z,3.80
2022-10-18T09:06:34.707Z,4.55
2022-10-18T09:08:59.816Z,4.30
2022-10-18T09:11:26.078Z,3.13
2022-10-18T09:13:46.075Z,2.65
2022-10-18T09:16:06.247Z,2.90
2022-10-18T09:18:48.197Z,2.20
2022-10-18T09:20:58.587Z,2.40
2022-10-18T09:23:35.685Z,3.17
2022-10-18T09:25:49.771Z,2.78
2022-10-18T09:27:57.446Z,2.35
2022-10-18T09:30:10.382Z,1.88
2022-10-18T09:32:19.671Z,2.03
2022-10-18T09:34:42.867Z,2.88
2022-10-18T09:36:45.559Z,2.17
2022-10-18T09:38:51.511Z,2.45
2022-10-18T09:41:02.500Z,1.88
2022-10-18T09:43:14.539Z,1.98
2022-10-18T09:45:32.568Z,2.10
2022-10-18T09:47:41.551Z,2.22
2022-10-18T09:49:47.538Z,1.88
2022-10-18T09:51:51.600Z,2.08
2022-10-18T09:54:33.175Z,2.25
2022-10-18T09:56:48.304Z,2.05
2022-10-18T09:58:51.605Z,1.83
2022-10-18T10:00:55.167Z,2.08
2022-10-18T10:02:57.609Z,2.17
2022-10-18T10:04:59.283Z,2.15
2022-10-18T10:07:02.438Z,2.17
2022-10-18T10:09:15.517Z,2.10
2022-10-18T10:11:31.207Z,1.95
2022-10-18T10:13:33.320Z,2.28
2022-10-18T10:15:38.278Z,2.15
2022-10-18T10:17:41.025Z,3.17
2022-10-18T10:20:03.735Z,3.38
2022-10-18T10:22:14.506Z,2.65
2022-10-18T10:26:43.928Z,1.92
2022-10-18T10:28:49.013Z,2.55
2022-10-18T10:30:50.969Z,1.85
2022-10-18T10:32:54.232Z,1.80
2022-10-18T10:34:56.720Z,2.05
2022-10-18T10:36:59.054Z,1.65
2022-10-18T10:39:12.939Z,1.80
2022-10-18T10:41:24.233Z,1.55
2022-10-18T10:43:38.612Z,1.70
2022-10-18T10:46:09.517Z,1.80
2022-10-18T10:48:16.932Z,1.70
2022-10-18T10:50:29.421Z,1.70
2022-10-18T10:52:31.689Z,1.60
2022-10-18T10:54:37.121Z,2.08
2022-10-18T10:56:51.678Z,1.20
2022-10-18T10:58:55.567Z,1.30
2022-10-18T11:00:58.867Z,0.90
2022-10-18T11:03:35.603Z,1.17
2022-10-18T11:05:48.628Z,0.93
2022-10-18T11:08:02.913Z,1.08
2022-10-18T11:10:12.620Z,1.45
2022-10-18T11:12:34.253Z,1.27
2022-10-18T11:14:41.747Z,1.42
2022-10-18T11:17:17.536Z,0.80
2022-10-18T11:19:51.315Z,1.40
2022-10-18T11:21:53.904Z,1.40
2022-10-18T11:23:57.275Z,1.13
2022-10-18T11:26:07.861Z,1.00
2022-10-18T11:28:24.065Z,1.42
2022-10-18T11:30:42.889Z,1.45
2022-10-18T11:32:58.090Z,1.48
2022-10-18T11:35:05.825Z,1.30
2022-10-18T11:37:29.099Z,1.50
2022-10-18T11:39:48.144Z,1.90
2022-10-18T11:41:52.314Z,1.30
2022-10-18T11:44:04.034Z,1.70
2022-10-18T11:46:20.941Z,1.50
2022-10-18T11:48:58.986Z,1.73
2022-10-18T11:51:10.485Z,1.67
2022-10-18T11:53:59.431Z,1.67
2022-10-18T11:56:30.113Z,1.60
2022-10-18T11:58:51.992Z,1.63
2022-10-18T12:01:40.890Z,1.05
2022-10-18T12:04:12.766Z,1.15
2022-10-18T12:06:21.984Z,1.30
2022-10-18T12:08:34.546Z,1.65
2022-10-18T12:10:44.347Z,2.00
2022-10-18T12:13:02.182Z,1.80
2022-10-18T12:15:13.952Z,1.48
2022-10-18T12:17:41.113Z,2.13
2022-10-18T12:19:41.950Z,1.63
2022-10-18T12:21:43.808Z,1.38
2022-10-18T12:23:54.050Z,1.38
2022-10-18T12:26:02.229Z,1.23
2022-10-18T12:28:48.765Z,1.20
2022-10-18T12:31:22.827Z,1.20
2022-10-18T12:33:30.748Z,1.33
2022-10-18T12:35:44.423Z,0.90
2022-10-18T12:38:21.793Z,1.38
2022-10-18T12:40:43.438Z,1.48
2022-10-18T12:42:50.997Z,1.50
2022-10-18T12:45:35.413Z,2.28
2022-10-18T12:47:38.016Z,1.80
2022-10-18T12:49:42.608Z,1.55
2022-10-18T12:51:59.440Z,1.73
2022-10-18T12:54:01.029Z,1.58
2022-10-18T12:56:30.922Z,1.23
2022-10-18T12:58:33.082Z,1.20
2022-10-18T13:00:34.727Z,1.73
2022-10-18T13:02:36.740Z,1.30
2022-10-18T13:04:38.619Z,1.48
2022-10-18T13:07:03.079Z,1.00
2022-10-18T13:09:20.466Z,1.40
2022-10-18T13:11:33.559Z,0.88
2022-10-18T13:13:41.849Z,1.35
2022-10-18T13:15:52.470Z,1.02
2022-10-18T13:20:25.507Z,1.40
2022-10-18T13:23:05.139Z,1.25
2022-10-18T13:25:21.205Z,0.70
2022-10-18T13:27:35.928Z,1.10
2022-10-18T13:29:47.884Z,1.25
2022-10-18T13:34:45.833Z,0.90
2022-10-18T13:37:00.263Z,1.13
2022-10-18T13:39:05.285Z,0.95
2022-10-18T13:43:55.003Z,1.33
2022-10-18T13:45:56.734Z,1.25
2022-10-18T13:48:30.056Z,0.80
2022-10-18T13:50:36.388Z,0.60
2022-10-18T13:53:09.517Z,1.08
2022-10-18T13:55:38.634Z,1.50
2022-10-18T13:58:04.912Z,1.30
2022-10-18T14:00:48.165Z,0.80
2022-10-18T14:06:22.600Z,1.25
2022-10-18T14:08:37.063Z,1.00
2022-10-18T14:11:03.673Z,0.73
2022-10-18T14:13:07.344Z,1.05
2022-10-18T14:15:39.688Z,0.93
2022-10-18T14:18:16.380Z,0.68
2022-10-18T14:20:49.092Z,0.63
2022-10-18T14:22:54.494Z,0.82
2022-10-18T14:24:59.011Z,0.80
2022-10-18T14:27:20.356Z,0.70
2022-10-18T14:29:22.200Z,0.75
2022-10-18T14:31:23.905Z,0.98
2022-10-18T14:33:39.534Z,1.13
2022-10-18T14:35:41.986Z,1.10
2022-10-18T14:37:44.174Z,1.33
2022-10-18T14:39:46.813Z,1.02
2022-10-18T14:41:54.330Z,1.30
2022-10-18T14:44:14.560Z,0.82
2022-10-18T14:46:22.174Z,0.77
2022-10-18T14:48:24.055Z,1.52
2022-10-18T14:50:30.533Z,0.70
2022-10-18T14:52:35.697Z,0.85
2022-10-18T14:54:38.242Z,1.30
2022-10-18T14:56:41.637Z,0.82
2022-10-18T14:58:43.482Z,0.70
2022-10-18T15:00:48.545Z,0.70
2022-10-18T15:02:50.863Z,0.80
2022-10-18T15:04:58.885Z,0.80
2022-10-18T15:07:03.149Z,1.00
2022-10-18T15:09:05.903Z,1.10
2022-10-18T15:11:11.860Z,0.90
2022-10-18T15:13:32.033Z,0.80
2022-10-18T15:15:35.468Z,0.85
2022-10-18T15:17:37.232Z,1.00
2022-10-18T15:19:42.982Z,0.82
2022-10-18T15:24:27.302Z,1.05
2022-10-18T15:26:30.601Z,1.27
2022-10-18T15:28:32.284Z,1.50
2022-10-18T15:30:44.149Z,1.25
2022-10-18T15:33:00.158Z,1.15
2022-10-18T15:35:32.237Z,0.90
2022-10-18T15:37:43.273Z,0.93
2022-10-18T15:39:45.026Z,0.95
2022-10-18T15:41:57.968Z,0.85
2022-10-18T15:44:22.773Z,0.70
2022-10-18T15:46:32.133Z,0.90
2022-10-18T15:48:39.682Z,0.60
2022-10-18T15:50:41.546Z,0.90
2022-10-18T15:52:43.925Z,0.90
2022-10-18T15:54:45.700Z,1.10
2022-10-18T15:56:47.585Z,1.00
2022-10-18T15:58:50.796Z,0.90
2022-10-18T16:00:56.655Z,0.70
2022-10-18T16:02:58.355Z,1.00
2022-10-18T16:05:01.783Z,0.75
2022-10-18T16:07:03.422Z,1.30
2022-10-18T16:09:05.808Z,0.80
2022-10-18T16:11:18.429Z,1.60
2022-10-18T16:13:28.433Z,0.85
2022-10-18T16:15:30.156Z,1.40
2022-10-18T16:17:32.186Z,1.45
2022-10-18T16:19:34.292Z,1.20
2022-10-18T16:21:38.272Z,0.75
2022-10-18T16:23:39.929Z,0.82
2022-10-18T16:25:41.570Z,1.08
2022-10-18T16:27:43.783Z,0.80
2022-10-18T16:29:45.435Z,0.68
2022-10-18T16:31:48.137Z,0.88
2022-10-18T16:33:51.463Z,0.80
2022-10-18T16:35:53.665Z,0.90
2022-10-18T16:37:55.357Z,1.85
2022-10-18T16:39:57.023Z,1.00
2022-10-18T16:41:58.637Z,0.88
2022-10-18T16:44:00.297Z,1.08
2022-10-18T16:46:03.254Z,1.05
2022-10-18T16:48:05.454Z,1.92
2022-10-18T16:50:08.724Z,1.30
2022-10-18T16:52:10.439Z,2.33
2022-10-18T16:54:12.190Z,1.48
2022-10-18T16:56:17.812Z,1.05
2022-10-18T16:58:20.047Z,0.70
2022-10-18T17:00:23.410Z,0.88
2022-10-18T17:02:25.097Z,1.40
2022-10-18T17:04:26.823Z,1.02
2022-10-18T17:06:31.804Z,1.50
2022-10-18T17:08:33.525Z,1.15
2022-10-18T17:10:35.234Z,1.10
2022-10-18T17:12:36.939Z,1.45
2022-10-18T17:14:38.651Z,1.27
2022-10-18T17:16:40.352Z,1.58
2022-10-18T17:18:41.970Z,1.00
2022-10-18T17:20:44.259Z,1.52
2022-10-18T17:22:45.923Z,1.40
2022-10-18T17:24:47.650Z,1.35
2022-10-18T17:26:49.304Z,1.58
2022-10-18T17:28:56.007Z,1.67
2022-10-18T17:30:57.677Z,1.60
2022-10-18T17:32:59.433Z,1.45
2022-10-18T17:35:01.087Z,1.20
2022-10-18T17:37:04.000Z,1.90
2022-10-18T17:39:05.760Z,1.65
2022-10-18T17:41:11.306Z,2.03
2022-10-18T17:43:13.833Z,1.90
2022-10-18T17:45:15.696Z,1.50
2022-10-18T17:47:17.448Z,2.20
2022-10-18T17:49:19.149Z,2.20
2022-10-18T17:51:21.379Z,2.10
2022-10-18T17:53:40.148Z,1.85
2022-10-18T17:55:41.849Z,1.90
2022-10-18T17:57:44.177Z,1.60
2022-10-18T17:59:47.815Z,1.27
2022-10-18T18:01:49.524Z,1.80
2022-10-18T18:03:59.756Z,2.20
2022-10-18T18:06:13.789Z,1.83
2022-10-18T18:08:19.337Z,1.73
2022-10-18T18:10:21.127Z,1.25
2022-10-18T18:12:37.892Z,1.42
2022-10-18T18:14:40.533Z,1.73
2022-10-18T18:16:46.287Z,1.50
2022-10-18T18:18:51.320Z,1.55
2022-10-18T18:20:55.132Z,1.50
2022-10-18T18:22:57.803Z,2.40
2022-10-18T18:24:59.762Z,2.00
2022-10-18T18:27:01.506Z,1.77
2022-10-18T18:29:04.389Z,1.73
2022-10-18T18:31:23.594Z,2.20
2022-10-18T18:33:40.221Z,1.65
2022-10-18T18:35:41.934Z,2.20
2022-10-18T18:37:43.788Z,2.00
2022-10-18T18:39:45.631Z,2.85
2022-10-18T18:41:49.811Z,2.72
2022-10-18T18:43:57.678Z,2.03
2022-10-18T18:45:59.479Z,2.08
2022-10-18T18:48:01.188Z,2.40
2022-10-18T18:50:02.881Z,2.13
2022-10-18T18:52:04.710Z,2.20
2022-10-18T18:54:12.345Z,2.65
2022-10-18T18:56:17.058Z,1.88
2022-10-18T18:58:19.211Z,2.45
2022-10-18T19:00:20.812Z,3.70
2022-10-18T19:02:22.513Z,2.08
2022-10-18T19:04:24.229Z,2.78
2022-10-18T19:06:36.934Z,1.77
2022-10-18T19:08:41.605Z,2.33
2022-10-18T19:10:52.714Z,2.22
2022-10-18T19:12:54.484Z,2.35
2022-10-18T19:14:56.161Z,2.63
2022-10-18T19:17:02.544Z,2.90
2022-10-18T19:19:06.176Z,2.95
2022-10-18T19:21:07.841Z,3.20
2022-10-18T19:23:09.647Z,2.78
2022-10-18T19:25:11.932Z,3.10
2022-10-18T19:27:13.755Z,3.30
2022-10-18T19:29:24.118Z,2.38
2022-10-18T19:31:25.863Z,2.83
2022-10-18T19:33:47.835Z,2.08
2022-10-18T19:35:50.435Z,2.10
2022-10-18T19:37:53.329Z,2.15
2022-10-18T19:39:55.121Z,2.08
2022-10-18T19:41:58.790Z,2.53
2022-10-18T19:44:00.470Z,2.58
2022-10-18T19:46:04.032Z,2.47
2022-10-18T19:48:06.268Z,2.35
2022-10-18T19:50:09.347Z,2.28
2022-10-18T19:52:12.496Z,2.58
2022-10-18T19:54:15.226Z,2.20
2022-10-18T19:56:19.739Z,2.00
2022-10-18T19:58:21.373Z,1.98
2022-10-18T20:00:23.065Z,2.08
2022-10-18T20:02:24.745Z,2.33
2022-10-18T20:04:28.913Z,2.17
2022-10-18T20:06:35.418Z,2.45
2022-10-18T20:08:38.117Z,2.60
2022-10-18T20:10:39.830Z,3.10
2022-10-18T20:12:41.538Z,2.33
2022-10-18T20:14:59.702Z,2.17
2022-10-18T20:17:01.367Z,3.53
2022-10-18T20:19:05.742Z,1.90
2022-10-18T20:21:08.152Z,1.80
2022-10-18T20:23:10.002Z,2.22
2022-10-18T20:25:11.743Z,2.80
2022-10-18T20:27:13.434Z,2.50
2022-10-18T20:29:15.238Z,2.67
2022-10-18T20:31:19.079Z,2.42
2022-10-18T20:33:20.885Z,2.70
2022-10-18T20:35:22.659Z,2.08
2022-10-18T20:37:24.491Z,1.98
2022-10-18T20:39:26.350Z,2.45
2022-10-18T20:41:36.826Z,2.17
2022-10-18T20:43:39.097Z,1.83
2022-10-18T20:45:40.883Z,2.50
2022-10-18T20:47:42.851Z,1.83
2022-10-18T20:49:44.539Z,3.13
2022-10-18T20:51:46.233Z,1.58
2022-10-18T20:53:48.067Z,1.67
2022-10-18T20:55:50.251Z,2.20
2022-10-18T20:57:52.144Z,1.95
2022-10-18T20:59:53.765Z,2.25
2022-10-18T21:01:55.415Z,1.60
2022-10-18T21:04:00.068Z,1.92
2022-10-18T21:06:02.475Z,2.08
2022-10-18T21:08:04.212Z,1.80
2022-10-18T21:10:06.424Z,1.77
2022-10-18T21:12:08.125Z,1.67
2022-10-18T21:14:13.643Z,1.65
2022-10-18T21:16:15.298Z,1.38
2022-10-18T21:18:16.943Z,1.75
2022-10-18T21:20:19.010Z,1.58
2022-10-18T21:22:20.646Z,1.45
2022-10-18T21:24:24.004Z,2.15
2022-10-18T21:26:27.326Z,1.45
2022-10-18T21:28:29.011Z,1.40
2022-10-18T21:30:30.748Z,1.33
2022-10-18T21:32:32.594Z,1.50
2022-10-18T21:34:34.386Z,1.77
2022-10-18T21:36:37.119Z,1.35
2022-10-18T21:38:39.365Z,2.28
2022-10-18T21:40:44.680Z,1.92
2022-10-18T21:42:46.531Z,1.75
2022-10-18T21:44:48.141Z,1.30
2022-10-18T21:46:50.047Z,1.88
2022-10-18T21:48:53.206Z,2.10
2022-10-18T21:50:55.112Z,1.85
2022-10-18T21:52:56.721Z,1.70
2022-10-18T21:54:58.427Z,1.50
2022-10-18T21:57:00.027Z,1.30
2022-10-18T21:59:02.043Z,1.83
2022-10-18T22:01:17.523Z,2.22
2022-10-18T22:03:33.414Z,1.58
2022-10-18T22:05:37.396Z,2.00
2022-10-18T22:07:39.112Z,1.42
2022-10-18T22:09:41.432Z,1.98
2022-10-18T22:11:47.020Z,1.33
2022-10-18T22:13:48.999Z,1.60
2022-10-18T22:15:50.686Z,1.50
2022-10-18T22:17:57.504Z,1.92
2022-10-18T22:20:01.627Z,1.42
2022-10-18T22:22:06.020Z,2.33
2022-10-18T22:24:09.425Z,1.38
2022-10-18T22:26:17.386Z,1.40
2022-10-18T22:28:19.047Z,1.20
2022-10-18T22:30:20.733Z,1.58
2022-10-18T22:32:22.500Z,1.20
2022-10-18T22:34:31.440Z,1.33
2022-10-18T22:36:33.842Z,1.73
2022-10-18T22:38:37.775Z,1.20
2022-10-18T22:40:39.414Z,1.55
2022-10-18T22:42:41.063Z,1.02
2022-10-18T22:44:42.671Z,1.90
2022-10-18T22:46:44.381Z,1.50
2022-10-18T22:48:46.581Z,1.63
2022-10-18T22:50:48.310Z,2.25
2022-10-18T22:52:51.544Z,2.28
2022-10-18T22:54:55.670Z,1.80
2022-10-18T22:56:57.280Z,1.55
2022-10-18T22:58:58.880Z,1.90
2022-10-18T23:01:12.234Z,1.67
2022-10-18T23:03:26.629Z,1.85
2022-10-18T23:05:28.262Z,1.55
2022-10-18T23:07:29.940Z,1.52
2022-10-18T23:09:31.632Z,1.77
2022-10-18T23:11:35.190Z,2.03
2022-10-18T23:13:39.486Z,1.70
2022-10-18T23:15:41.479Z,1.55
2022-10-18T23:17:43.205Z,1.77
2022-10-18T23:19:44.829Z,1.52
2022-10-18T23:21:46.486Z,2.10
2022-10-18T23:23:48.151Z,1.88
2022-10-18T23:25:54.201Z,1.85
2022-10-18T23:27:57.467Z,1.77
2022-10-18T23:29:59.096Z,2.03
2022-10-18T23:32:01.076Z,1.42
2022-10-18T23:34:05.345Z,2.13
2022-10-18T23:36:09.261Z,2.08
2022-10-18T23:38:10.906Z,1.27
2022-10-18T23:40:12.792Z,1.73
2022-10-18T23:42:14.435Z,1.88
2022-10-18T23:44:16.280Z,1.95
2022-10-18T23:46:18.692Z,1.40
2022-10-18T23:48:20.709Z,1.73
2022-10-18T23:50:22.419Z,1.42
2022-10-18T23:52:24.871Z,1.33
2022-10-18T23:54:26.601Z,1.92
2022-10-18T23:56:28.259Z,1.65
2022-10-18T23:58:31.458Z,1.65
